Bahla, Oman
Current Conditions -  °F | °C
As of 6:50 PM on Thursday 30 Oct 2014 (Local Time) from EQMN Reporting Station
Broken Clouds Broken Clouds  
Wind Chill: 81°   Ceiling: 10000
Heat Index: 83°   Visibility: 6mi
Dew Point: 68°   Wind: 5mph
Humidity: 65%   Direction: 100°E
Pressure: 29.85"   Gusts: NA
Location:  22.97°N, 57.3°E
Report Text: EQMN 301450Z 10004KT 9999 FEW050 BKN100 27/20 Q1011 BLU NOSIG
Loading
Personal Weather Stations






























Interactive Weather Map
Tropical Storm Tracking
New forecast layout! Learn more

10-Day Weather Forecast

Advertisements
Track Severe Weather on mobile